createdAt,value
2018-06-17T00:00:47.154Z,99.90
2018-06-17T00:03:15.552Z,99.90
2018-06-17T00:05:44.115Z,99.90
2018-06-17T00:08:12.496Z,99.90
2018-06-17T00:10:40.861Z,99.90
2018-06-17T00:13:09.213Z,99.90
2018-06-17T00:15:37.596Z,99.90
2018-06-17T00:18:05.981Z,99.90
2018-06-17T00:20:34.333Z,99.90
2018-06-17T00:23:02.699Z,99.90
2018-06-17T00:27:59.164Z,99.90
2018-06-17T00:30:27.572Z,99.90
2018-06-17T00:32:55.934Z,99.90
2018-06-17T00:35:24.320Z,99.90
2018-06-17T00:37:52.702Z,99.90
2018-06-17T00:40:21.039Z,99.90
2018-06-17T00:42:49.423Z,99.90
2018-06-17T00:45:17.835Z,99.90
2018-06-17T00:47:46.231Z,99.90
2018-06-17T00:50:14.608Z,99.90
2018-06-17T00:52:42.986Z,99.90
2018-06-17T00:55:11.459Z,99.90
2018-06-17T00:57:48.777Z,99.90
2018-06-17T01:00:17.443Z,99.90
2018-06-17T01:02:49.065Z,99.90
2018-06-17T01:05:17.878Z,99.90
2018-06-17T01:07:46.646Z,99.90
2018-06-17T01:10:15.051Z,99.90
2018-06-17T01:12:43.444Z,99.90
2018-06-17T01:15:11.923Z,99.90
2018-06-17T01:17:40.280Z,99.90
2018-06-17T01:20:09.235Z,99.90
2018-06-17T01:22:38.206Z,99.90
2018-06-17T01:25:06.674Z,99.90
2018-06-17T01:27:35.081Z,99.90
2018-06-17T01:30:03.452Z,99.90
2018-06-17T01:32:31.834Z,99.90
2018-06-17T01:35:00.210Z,99.90
2018-06-17T01:37:28.608Z,99.90
2018-06-17T01:39:57.092Z,99.90
2018-06-17T01:42:25.481Z,99.90
2018-06-17T01:44:53.911Z,99.90
2018-06-17T01:47:22.292Z,99.90
2018-06-17T01:49:50.748Z,99.90
2018-06-17T01:54:47.229Z,99.90
2018-06-17T01:57:15.624Z,99.90
2018-06-17T01:59:43.998Z,99.90
2018-06-17T02:02:12.466Z,99.90
2018-06-17T02:04:46.252Z,99.90
2018-06-17T02:08:20.920Z,99.90
2018-06-17T02:11:54.153Z,99.90
2018-06-17T02:14:27.714Z,99.90
2018-06-17T02:16:56.088Z,99.90
2018-06-17T02:19:24.480Z,99.90
2018-06-17T02:21:52.818Z,99.90
2018-06-17T02:24:21.209Z,99.90
2018-06-17T02:26:49.596Z,99.90
2018-06-17T02:29:17.992Z,99.90
2018-06-17T02:31:46.385Z,99.90
2018-06-17T02:34:15.084Z,99.90
2018-06-17T02:36:43.481Z,99.90
2018-06-17T02:39:11.847Z,99.90
2018-06-17T02:41:40.185Z,99.90
2018-06-17T02:44:08.555Z,99.90
2018-06-17T02:46:42.453Z,99.90
2018-06-17T02:49:16.815Z,99.90
2018-06-17T02:51:50.515Z,99.90
2018-06-17T02:54:24.394Z,99.90
2018-06-17T02:56:52.772Z,99.90
2018-06-17T02:59:21.179Z,99.90
2018-06-17T03:01:49.637Z,99.90
2018-06-17T03:04:18.029Z,99.90
2018-06-17T03:06:46.434Z,99.90
2018-06-17T03:09:14.821Z,99.90
2018-06-17T03:11:43.293Z,99.90
2018-06-17T03:14:11.658Z,99.90
2018-06-17T03:16:40.022Z,99.90
2018-06-17T03:19:08.454Z,99.90
2018-06-17T03:21:37.646Z,99.90
2018-06-17T03:24:06.067Z,99.90
2018-06-17T03:26:39.698Z,99.90
2018-06-17T03:29:13.494Z,99.90
2018-06-17T03:31:47.261Z,99.90
2018-06-17T03:34:15.643Z,99.90
2018-06-17T03:36:44.027Z,99.90
2018-06-17T03:39:12.387Z,99.90
2018-06-17T03:41:40.775Z,99.90
2018-06-17T03:44:09.149Z,99.90
2018-06-17T03:46:37.572Z,99.90
2018-06-17T03:49:06.345Z,99.90
2018-06-17T03:51:34.697Z,99.90
2018-06-17T03:54:03.075Z,99.90
2018-06-17T03:56:31.646Z,99.90
2018-06-17T03:59:00.000Z,99.90
2018-06-17T04:01:28.369Z,99.90
2018-06-17T04:03:56.757Z,99.90
2018-06-17T04:06:25.109Z,99.90
2018-06-17T04:08:53.562Z,99.90
2018-06-17T04:11:22.003Z,99.90
2018-06-17T04:13:50.368Z,99.90
2018-06-17T04:16:18.738Z,99.90
2018-06-17T04:18:47.100Z,99.90
2018-06-17T04:21:15.730Z,99.90
2018-06-17T04:23:44.086Z,99.90
2018-06-17T04:26:12.456Z,99.90
2018-06-17T04:28:40.856Z,99.90
2018-06-17T04:31:09.264Z,99.90
2018-06-17T04:33:37.664Z,99.90
2018-06-17T04:36:06.072Z,99.90
2018-06-17T04:38:34.474Z,99.90
2018-06-17T04:41:02.838Z,99.90
2018-06-17T04:43:31.190Z,99.90
2018-06-17T04:45:59.562Z,99.90
2018-06-17T04:48:28.043Z,99.90
2018-06-17T04:50:56.352Z,99.90
2018-06-17T04:53:24.720Z,99.90
2018-06-17T04:55:53.191Z,99.90
2018-06-17T04:58:21.556Z,99.90
2018-06-17T05:00:49.920Z,99.90
2018-06-17T05:03:18.270Z,99.90
2018-06-17T05:05:46.651Z,99.90
2018-06-17T05:08:15.021Z,99.90
2018-06-17T05:10:43.539Z,99.90
2018-06-17T05:13:11.959Z,99.90
2018-06-17T05:15:40.325Z,99.90
2018-06-17T05:18:08.667Z,99.90
2018-06-17T05:20:37.139Z,99.90
2018-06-17T05:23:05.657Z,99.90
2018-06-17T05:25:34.103Z,99.90
2018-06-17T05:28:02.477Z,99.90
2018-06-17T05:30:30.887Z,99.90
2018-06-17T05:32:59.246Z,99.90
2018-06-17T05:35:27.597Z,99.90
2018-06-17T05:37:55.935Z,99.90
2018-06-17T05:40:24.294Z,99.90
2018-06-17T05:42:52.661Z,99.90
2018-06-17T05:45:21.043Z,99.90
2018-06-17T05:47:49.461Z,99.90
2018-06-17T05:50:17.845Z,99.90
2018-06-17T05:52:46.207Z,99.90
2018-06-17T05:55:14.609Z,99.90
2018-06-17T05:57:43.000Z,99.90
2018-06-17T06:02:46.109Z,99.90
2018-06-17T06:05:14.490Z,99.90
2018-06-17T06:07:43.283Z,99.90
2018-06-17T06:10:11.667Z,99.90
2018-06-17T06:12:40.164Z,99.90
2018-06-17T06:15:08.540Z,99.90
2018-06-17T06:17:37.790Z,99.90
2018-06-17T06:20:07.895Z,99.90
2018-06-17T06:22:36.289Z,99.90
2018-06-17T06:25:04.698Z,99.90
2018-06-17T06:27:33.150Z,99.90
2018-06-17T06:30:01.489Z,99.90
2018-06-17T06:32:29.918Z,99.90
2018-06-17T06:34:58.617Z,99.90
2018-06-17T06:39:55.544Z,96.30
2018-06-17T06:42:23.978Z,96.40
2018-06-17T06:44:52.350Z,96.40
2018-06-17T06:47:20.700Z,97.30
2018-06-17T06:49:49.104Z,98.30
2018-06-17T06:52:17.506Z,99.90
2018-06-17T06:54:45.881Z,99.50
2018-06-17T06:57:14.258Z,99.40
2018-06-17T06:59:42.654Z,99.40
2018-06-17T07:02:22.264Z,99.80
2018-06-17T07:05:01.972Z,99.50
2018-06-17T07:07:41.729Z,99.00
2018-06-17T07:10:26.484Z,98.30
2018-06-17T07:12:55.006Z,97.40
2018-06-17T07:15:36.466Z,96.80
2018-06-17T07:18:16.402Z,96.30
2018-06-17T07:20:45.319Z,96.50
2018-06-17T07:23:13.782Z,96.40
2018-06-17T07:26:55.354Z,96.80
2018-06-17T07:29:36.508Z,97.50
2018-06-17T07:32:04.854Z,98.40
2018-06-17T07:34:33.194Z,98.50
2018-06-17T07:37:01.575Z,98.40
2018-06-17T07:41:39.492Z,98.60
2018-06-17T07:44:07.860Z,98.30
2018-06-17T07:46:36.398Z,97.60
2018-06-17T07:49:48.626Z,97.00
2018-06-17T07:52:29.587Z,97.00
2018-06-17T07:54:58.063Z,96.60
2018-06-17T07:57:27.730Z,95.40
2018-06-17T07:59:56.142Z,94.50
2018-06-17T08:02:24.542Z,94.10
2018-06-17T08:04:53.067Z,93.80
2018-06-17T08:07:21.544Z,93.20
2018-06-17T08:09:49.956Z,92.60
2018-06-17T08:12:18.339Z,92.40
2018-06-17T08:14:46.920Z,92.00
2018-06-17T08:17:15.316Z,90.90
2018-06-17T08:19:43.756Z,90.60
2018-06-17T08:22:12.158Z,90.50
2018-06-17T08:24:40.528Z,88.80
2018-06-17T08:27:08.890Z,87.10
2018-06-17T08:29:37.254Z,85.40
2018-06-17T08:32:05.667Z,83.70
2018-06-17T08:34:34.044Z,82.70
2018-06-17T08:37:02.434Z,81.30
2018-06-17T08:39:30.813Z,80.60
2018-06-17T08:41:59.262Z,80.00
2018-06-17T08:44:27.600Z,79.80
2018-06-17T08:46:56.003Z,79.20
2018-06-17T08:49:24.314Z,76.90
2018-06-17T08:51:52.742Z,74.50
2018-06-17T08:54:21.143Z,73.30
2018-06-17T08:56:49.486Z,72.70
2018-06-17T08:59:17.878Z,72.60
2018-06-17T09:01:46.296Z,72.20
2018-06-17T09:04:14.679Z,71.00
2018-06-17T09:06:43.089Z,72.80
2018-06-17T09:09:12.464Z,72.60
2018-06-17T09:11:40.826Z,73.90
2018-06-17T09:14:09.197Z,74.00
2018-06-17T09:16:37.746Z,73.50
2018-06-17T09:19:06.122Z,71.70
2018-06-17T09:21:34.572Z,70.20
2018-06-17T09:24:03.016Z,69.50
2018-06-17T09:26:31.508Z,68.20
2018-06-17T09:28:59.896Z,67.00
2018-06-17T09:31:28.258Z,65.50
2018-06-17T09:33:56.662Z,65.30
2018-06-17T09:36:25.053Z,66.00
2018-06-17T09:38:53.429Z,65.80
2018-06-17T09:41:21.820Z,65.10
2018-06-17T09:43:50.300Z,63.30
2018-06-17T09:46:18.664Z,62.00
2018-06-17T09:48:47.154Z,62.10
2018-06-17T09:51:15.502Z,61.50
2018-06-17T09:53:44.298Z,62.20
2018-06-17T09:56:12.666Z,61.00
2018-06-17T09:58:41.208Z,60.90
2018-06-17T10:01:09.674Z,61.20
2018-06-17T10:03:38.022Z,63.30
2018-06-17T10:06:06.402Z,64.10
2018-06-17T10:08:34.768Z,63.50
2018-06-17T10:11:06.072Z,65.30
2018-06-17T10:13:35.796Z,65.20
2018-06-17T10:16:04.200Z,65.20
2018-06-17T10:18:33.355Z,66.70
2018-06-17T10:21:01.832Z,66.60
2018-06-17T10:23:30.204Z,66.50
2018-06-17T10:25:58.589Z,65.40
2018-06-17T10:28:27.782Z,66.50
2018-06-17T10:30:56.992Z,67.20
2018-06-17T10:33:25.408Z,68.60
2018-06-17T10:35:54.089Z,70.00
2018-06-17T10:38:22.490Z,68.90
2018-06-17T10:40:50.875Z,69.30
2018-06-17T10:48:17.115Z,68.30
2018-06-17T10:50:45.515Z,66.80
2018-06-17T10:53:13.877Z,64.80
2018-06-17T10:55:42.529Z,63.30
2018-06-17T10:58:10.900Z,60.50
2018-06-17T11:00:40.225Z,59.70
2018-06-17T11:03:08.636Z,58.50
2018-06-17T11:05:37.080Z,57.30
2018-06-17T11:08:05.478Z,56.50
2018-06-17T11:10:33.966Z,55.90
2018-06-17T11:13:02.403Z,55.20
2018-06-17T11:15:30.786Z,55.50
2018-06-17T11:17:59.192Z,54.50
2018-06-17T11:20:27.586Z,52.90
2018-06-17T11:22:55.986Z,52.20
2018-06-17T11:25:24.382Z,53.40
2018-06-17T11:27:52.729Z,53.10
2018-06-17T11:30:21.107Z,53.00
2018-06-17T11:32:49.491Z,51.40
2018-06-17T11:35:18.556Z,49.90
2018-06-17T11:37:46.956Z,48.00
2018-06-17T11:40:15.361Z,47.50
2018-06-17T11:42:43.751Z,48.00
2018-06-17T11:45:12.143Z,47.30
2018-06-17T11:47:40.526Z,46.60
2018-06-17T11:50:08.890Z,45.20
2018-06-17T11:52:37.335Z,44.60
2018-06-17T11:55:05.883Z,45.00
2018-06-17T11:57:34.270Z,45.60
2018-06-17T12:00:02.722Z,45.40
2018-06-17T12:02:31.117Z,43.60
2018-06-17T12:04:59.503Z,43.50
2018-06-17T12:07:27.844Z,42.80
2018-06-17T12:09:56.258Z,42.90
2018-06-17T12:12:24.637Z,44.70
2018-06-17T12:14:53.044Z,44.60
2018-06-17T12:17:21.516Z,45.10
2018-06-17T12:19:49.987Z,45.10
2018-06-17T12:22:18.354Z,44.40
2018-06-17T12:24:46.727Z,43.80
2018-06-17T12:27:15.275Z,43.70
2018-06-17T12:29:43.685Z,43.70
2018-06-17T12:32:12.075Z,43.10
2018-06-17T12:34:40.615Z,43.90
2018-06-17T12:37:09.073Z,45.40
2018-06-17T12:44:33.575Z,46.60
2018-06-17T12:47:01.964Z,45.60
2018-06-17T12:49:30.404Z,46.00
2018-06-17T12:52:05.064Z,47.00
2018-06-17T12:54:33.482Z,47.70
2018-06-17T12:57:01.838Z,47.70
2018-06-17T12:59:33.162Z,49.30
2018-06-17T13:02:01.557Z,49.20
2018-06-17T13:04:29.939Z,50.00
2018-06-17T13:06:58.398Z,50.50
2018-06-17T13:09:26.763Z,49.30
2018-06-17T13:11:55.198Z,46.70
2018-06-17T13:14:23.575Z,46.00
2018-06-17T13:16:58.314Z,46.40
2018-06-17T13:19:26.685Z,46.40
2018-06-17T13:22:01.742Z,46.50
2018-06-17T13:24:30.084Z,47.00
2018-06-17T13:26:58.589Z,47.30
2018-06-17T13:31:55.355Z,47.80
2018-06-17T13:34:23.727Z,47.10
2018-06-17T13:36:52.073Z,45.70
2018-06-17T13:39:20.483Z,45.00
2018-06-17T13:41:48.824Z,45.50
2018-06-17T13:44:17.173Z,46.60
2018-06-17T13:46:45.549Z,47.90
2018-06-17T13:49:13.884Z,48.40
2018-06-17T13:51:42.273Z,48.10
2018-06-17T13:54:10.612Z,45.30
2018-06-17T13:56:39.001Z,44.20
2018-06-17T13:59:07.447Z,45.10
2018-06-17T14:01:35.795Z,45.70
2018-06-17T14:04:04.166Z,46.60
2018-06-17T14:06:32.648Z,47.90
2018-06-17T14:09:01.013Z,48.30
2018-06-17T14:11:29.389Z,48.00
2018-06-17T14:14:04.262Z,48.30
2018-06-17T14:19:00.730Z,46.50
2018-06-17T14:21:29.396Z,47.10
2018-06-17T14:23:57.771Z,47.20
2018-06-17T14:26:26.116Z,46.80
2018-06-17T14:28:54.599Z,46.90
2018-06-17T14:31:22.959Z,46.00
2018-06-17T14:33:51.366Z,46.30
2018-06-17T14:36:19.794Z,46.10
2018-06-17T14:38:48.187Z,45.60
2018-06-17T14:43:53.183Z,43.10
2018-06-17T14:46:26.929Z,44.10
2018-06-17T14:49:01.036Z,45.40
2018-06-17T14:51:34.713Z,45.50
2018-06-17T14:54:03.084Z,46.70
2018-06-17T14:56:31.430Z,46.90
2018-06-17T14:58:59.860Z,46.70
2018-06-17T15:01:28.364Z,47.00
2018-06-17T15:03:56.751Z,46.60
2018-06-17T15:06:25.303Z,46.00
2018-06-17T15:08:53.736Z,46.30
2018-06-17T15:11:22.115Z,46.10
2018-06-17T15:13:50.552Z,46.50
2018-06-17T15:16:18.927Z,47.40
2018-06-17T15:18:47.309Z,48.00
2018-06-17T15:21:15.700Z,49.30
2018-06-17T15:23:44.061Z,50.10
2018-06-17T15:26:12.423Z,50.50
2018-06-17T15:28:40.803Z,51.50
2018-06-17T15:31:14.523Z,52.30
2018-06-17T15:33:48.315Z,53.50
2018-06-17T15:36:22.031Z,53.70
2018-06-17T15:38:53.967Z,55.00
2018-06-17T15:41:24.372Z,55.90
2018-06-17T15:43:54.009Z,55.80
2018-06-17T15:46:22.469Z,55.30
2018-06-17T15:48:50.877Z,55.20
2018-06-17T15:51:19.263Z,54.60
2018-06-17T15:53:47.966Z,54.80
2018-06-17T15:56:16.327Z,54.00
2018-06-17T15:58:44.694Z,52.70
2018-06-17T16:01:13.019Z,51.30
2018-06-17T16:03:41.349Z,51.10
2018-06-17T16:06:09.709Z,51.10
2018-06-17T16:08:38.096Z,51.10
2018-06-17T16:11:06.476Z,50.20
2018-06-17T16:13:40.281Z,50.30
2018-06-17T16:16:14.049Z,49.80
2018-06-17T16:18:47.853Z,50.40
2018-06-17T16:21:16.183Z,51.10
2018-06-17T16:23:44.519Z,50.50
2018-06-17T16:26:12.845Z,49.20
2018-06-17T16:28:41.211Z,48.90
2018-06-17T16:31:09.625Z,49.10
2018-06-17T16:33:37.969Z,48.10
2018-06-17T16:36:06.298Z,48.20
2018-06-17T16:38:34.659Z,49.70
2018-06-17T16:43:31.089Z,52.30
2018-06-17T16:45:59.449Z,52.60
2018-06-17T16:48:27.895Z,53.70
2018-06-17T16:51:01.747Z,54.50
2018-06-17T16:53:35.571Z,55.40
2018-06-17T16:56:09.391Z,56.30
2018-06-17T17:01:11.370Z,57.30
2018-06-17T17:03:39.735Z,58.30
2018-06-17T17:06:08.095Z,58.90
2018-06-17T17:08:36.543Z,58.80
2018-06-17T17:11:04.896Z,59.40
2018-06-17T17:13:33.253Z,59.60
2018-06-17T17:16:01.610Z,60.00
2018-06-17T17:18:30.008Z,61.00
2018-06-17T17:20:58.368Z,60.50
2018-06-17T17:23:26.894Z,60.40
2018-06-17T17:25:55.180Z,60.60
2018-06-17T17:28:23.513Z,60.10
2018-06-17T17:30:51.858Z,60.60
2018-06-17T17:33:25.665Z,60.10
2018-06-17T17:35:59.532Z,61.70
2018-06-17T17:38:33.283Z,63.10
2018-06-17T17:41:04.529Z,64.20
2018-06-17T17:43:32.885Z,65.20
2018-06-17T17:46:06.619Z,63.70
2018-06-17T17:48:34.992Z,63.80
2018-06-17T17:51:03.359Z,62.70
2018-06-17T17:53:31.717Z,62.40
2018-06-17T17:56:00.535Z,63.30
2018-06-17T17:58:29.321Z,64.40
2018-06-17T18:00:57.688Z,65.50
2018-06-17T18:03:26.124Z,67.30
2018-06-17T18:05:54.658Z,68.10
2018-06-17T18:08:23.051Z,69.40
2018-06-17T18:10:51.779Z,69.30
2018-06-17T18:13:20.122Z,69.50
2018-06-17T18:15:48.498Z,69.90
2018-06-17T18:18:16.893Z,70.80
2018-06-17T18:20:45.328Z,71.20
2018-06-17T18:23:13.736Z,71.80
2018-06-17T18:25:47.451Z,72.30
2018-06-17T18:28:21.135Z,73.10
2018-06-17T18:30:56.659Z,73.40
2018-06-17T18:33:30.489Z,73.80
2018-06-17T18:36:04.361Z,73.80
2018-06-17T18:38:32.724Z,73.70
2018-06-17T18:41:01.082Z,72.80
2018-06-17T18:43:29.489Z,72.70
2018-06-17T18:45:57.849Z,72.60
2018-06-17T18:48:26.206Z,73.20
2018-06-17T18:50:54.759Z,73.50
2018-06-17T18:53:24.946Z,74.00
2018-06-17T18:55:53.396Z,74.60
2018-06-17T18:58:21.754Z,74.70
2018-06-17T19:00:50.964Z,75.60
2018-06-17T19:03:19.864Z,75.10
2018-06-17T19:05:48.254Z,76.60
2018-06-17T19:08:22.064Z,76.60
2018-06-17T19:10:55.832Z,76.70
2018-06-17T19:13:29.547Z,77.20
2018-06-17T19:16:04.071Z,77.50
2018-06-17T19:18:32.870Z,77.50
2018-06-17T19:21:01.247Z,77.80
2018-06-17T19:23:29.752Z,77.90
2018-06-17T19:25:58.081Z,78.80
2018-06-17T19:28:26.467Z,80.10
2018-06-17T19:30:54.833Z,80.20
2018-06-17T19:33:23.170Z,81.40
2018-06-17T19:35:51.534Z,82.20
2018-06-17T19:38:19.884Z,83.30
2018-06-17T19:40:48.288Z,84.20
2018-06-17T19:43:16.626Z,85.30
2018-06-17T19:45:45.028Z,86.60
2018-06-17T19:48:13.444Z,88.30
2018-06-17T19:50:47.141Z,89.10
2018-06-17T19:53:21.029Z,90.30
2018-06-17T19:55:54.940Z,91.60
2018-06-17T19:58:28.743Z,92.90
2018-06-17T20:00:59.414Z,94.30
2018-06-17T20:03:34.300Z,96.00
2018-06-17T20:06:02.724Z,98.10
2018-06-17T20:08:31.086Z,99.90
2018-06-17T20:10:59.606Z,99.90
2018-06-17T20:13:27.959Z,99.90
2018-06-17T20:15:56.330Z,99.90
2018-06-17T20:18:24.701Z,99.90
2018-06-17T20:20:53.074Z,99.90
2018-06-17T20:23:21.400Z,99.90
2018-06-17T20:25:49.764Z,99.90
2018-06-17T20:28:18.111Z,99.90
2018-06-17T20:33:19.862Z,99.90
2018-06-17T20:35:53.541Z,99.90
2018-06-17T20:38:27.316Z,99.90
2018-06-17T20:41:01.090Z,99.90
2018-06-17T20:43:34.880Z,99.90
2018-06-17T20:46:03.293Z,99.90
2018-06-17T20:48:31.641Z,99.90
2018-06-17T20:50:59.980Z,99.90
2018-06-17T20:53:28.362Z,99.90
2018-06-17T20:55:56.753Z,99.90
2018-06-17T20:58:25.088Z,99.90
2018-06-17T21:00:53.453Z,99.90
2018-06-17T21:03:21.849Z,99.90
2018-06-17T21:05:50.245Z,99.90
2018-06-17T21:08:18.614Z,99.90
2018-06-17T21:10:46.957Z,99.90
2018-06-17T21:13:15.404Z,99.90
2018-06-17T21:15:43.814Z,99.90
2018-06-17T21:18:12.166Z,99.90
2018-06-17T21:20:45.986Z,99.90
2018-06-17T21:23:19.893Z,99.90
2018-06-17T21:28:21.971Z,99.90
2018-06-17T21:30:50.359Z,99.90
2018-06-17T21:33:18.716Z,99.90
2018-06-17T21:35:47.089Z,99.90
2018-06-17T21:38:15.451Z,99.90
2018-06-17T21:40:43.812Z,99.90
2018-06-17T21:43:12.142Z,99.90
2018-06-17T21:45:40.526Z,99.90
2018-06-17T21:48:08.898Z,99.90
2018-06-17T21:50:37.254Z,99.90
2018-06-17T21:53:05.669Z,99.90
2018-06-17T21:55:34.062Z,99.90
2018-06-17T21:58:02.421Z,99.90
2018-06-17T22:00:30.759Z,99.90
2018-06-17T22:02:59.148Z,99.90
2018-06-17T22:05:27.488Z,99.90
2018-06-17T22:08:01.241Z,99.90
2018-06-17T22:10:35.125Z,99.90
2018-06-17T22:13:03.476Z,99.90
2018-06-17T22:15:37.195Z,99.90
2018-06-17T22:18:05.792Z,99.90
2018-06-17T22:20:34.163Z,99.90
2018-06-17T22:23:02.568Z,99.90
2018-06-17T22:25:30.949Z,99.90
2018-06-17T22:27:59.276Z,99.90
2018-06-17T22:30:27.659Z,99.90
2018-06-17T22:32:55.996Z,99.90
2018-06-17T22:35:24.353Z,99.90
2018-06-17T22:37:52.734Z,99.90
2018-06-17T22:40:21.185Z,99.90
2018-06-17T22:42:49.551Z,99.90
2018-06-17T22:45:17.957Z,99.90
2018-06-17T22:47:52.409Z,99.90
2018-06-17T22:50:20.767Z,99.90
2018-06-17T22:53:00.333Z,99.90
2018-06-17T22:55:28.688Z,99.90
2018-06-17T22:58:02.536Z,99.90
2018-06-17T23:00:36.355Z,99.90
2018-06-17T23:03:10.053Z,99.90
2018-06-17T23:05:43.791Z,99.90
2018-06-17T23:08:17.551Z,99.90
2018-06-17T23:10:45.912Z,99.90
2018-06-17T23:13:14.380Z,99.90
2018-06-17T23:15:42.781Z,99.90
2018-06-17T23:18:11.129Z,99.90
2018-06-17T23:20:39.494Z,99.90
2018-06-17T23:23:07.877Z,99.90
2018-06-17T23:25:36.239Z,99.90
2018-06-17T23:28:04.581Z,99.90
2018-06-17T23:30:32.968Z,99.90
2018-06-17T23:33:01.378Z,99.90
2018-06-17T23:35:29.865Z,99.90
2018-06-17T23:37:58.231Z,99.90
2018-06-17T23:40:26.568Z,99.90
2018-06-17T23:42:54.972Z,99.90
2018-06-17T23:45:23.309Z,99.90
2018-06-17T23:49:00.876Z,99.90
2018-06-17T23:51:34.695Z,99.90
2018-06-17T23:54:08.410Z,99.90
2018-06-17T23:56:36.770Z,99.90
2018-06-17T23:59:05.111Z,99.90
